Startpagina
METAR-TAF:

METAR-TAF

Vliegvelden :

Kosrae, Micronesië

breedte: 05-21N, lengte: 162-57E, hoogte: 3 m

Actueel weer

Dit bericht is 56 minuten geleden gemaakt, om 01:50 UTC
Wind 10 kt uit het noordwesten
Temperatuur 30°C
Vochtigheid 70%
Druk 1009 hPa
Zicht: 16.1 km
Verspreide wolken op 2100 ft
Gebroken wolken op 13000 ft
Geheel bewolkt op 30000 ft

METAR: PTSA 210150Z COR 32010KT 10SM SCT021 BKN130 OVC300 30/24 A2979

Tijdstip: 13:46 (02:46 UTC)

Verwachting

Dit bericht is 3 uur en het 20 minuten geleden gemaakt, om 23:26 UTC
Verwachting geldig van 21 om 00 UTC tot 21 om 24 UTC
Wind 6 kt uit variabele richting
Zicht: 10 km
Verspreide wolken op 2000 ft
Verspreide wolken op 13000 ft

TAF: PTSA 202326Z 2100/2124 VRB06KT P6SM SCT020 SCT130

Waarnemingen en weersverwachtingen van meer dan 4000 vliegvelden (METAR en TAF).

De beschikbare stations zijn de gele en rode punten op de kaart.

Ga met uw muis naar het station om de naam te zien.

Klik dan om waarnemingen en weersverwachtingen te zien.

kaart wijzigen: klik op de groene knoppen met een zwart kruis om in te zoomen, op de groene knop met een streepje om uit te zoomen of op de groene pijlen voor aangrenzende kaarten.


METAR-TAF: